sensor_id;sensor_type;location;lat;lon;timestamp;P1;durP1;ratioP1;P2;durP2;ratioP2
944;SDS011;459;48.676;9.034;2023-05-07T00:01:10;3.67;;;3.30;;
944;SDS011;459;48.676;9.034;2023-05-07T00:03:36;4.10;;;3.30;;
944;SDS011;459;48.676;9.034;2023-05-07T00:06:01;4.83;;;3.00;;
944;SDS011;459;48.676;9.034;2023-05-07T00:08:26;3.20;;;2.90;;
944;SDS011;459;48.676;9.034;2023-05-07T00:10:51;3.20;;;2.90;;
944;SDS011;459;48.676;9.034;2023-05-07T00:13:17;3.23;;;2.80;;
944;SDS011;459;48.676;9.034;2023-05-07T00:15:42;3.17;;;2.87;;
944;SDS011;459;48.676;9.034;2023-05-07T00:18:07;3.07;;;2.77;;
944;SDS011;459;48.676;9.034;2023-05-07T00:20:32;4.17;;;3.30;;
944;SDS011;459;48.676;9.034;2023-05-07T00:22:57;3.37;;;3.17;;
944;SDS011;459;48.676;9.034;2023-05-07T00:25:22;3.27;;;3.07;;
944;SDS011;459;48.676;9.034;2023-05-07T00:27:48;3.57;;;3.27;;
944;SDS011;459;48.676;9.034;2023-05-07T00:30:13;3.13;;;2.73;;
944;SDS011;459;48.676;9.034;2023-05-07T00:32:38;3.67;;;3.37;;
944;SDS011;459;48.676;9.034;2023-05-07T00:35:04;3.83;;;2.77;;
944;SDS011;459;48.676;9.034;2023-05-07T00:37:29;3.43;;;3.13;;
944;SDS011;459;48.676;9.034;2023-05-07T00:39:55;4.53;;;4.03;;
944;SDS011;459;48.676;9.034;2023-05-07T00:42:20;3.90;;;3.60;;
944;SDS011;459;48.676;9.034;2023-05-07T00:44:45;3.43;;;3.13;;
944;SDS011;459;48.676;9.034;2023-05-07T00:47:30;3.93;;;3.63;;
944;SDS011;459;48.676;9.034;2023-05-07T00:49:55;5.90;;;4.30;;
944;SDS011;459;48.676;9.034;2023-05-07T00:52:21;3.50;;;3.20;;
944;SDS011;459;48.676;9.034;2023-05-07T00:54:48;5.90;;;4.27;;
944;SDS011;459;48.676;9.034;2023-05-07T00:57:14;3.67;;;3.37;;
944;SDS011;459;48.676;9.034;2023-05-07T00:59:40;7.30;;;4.17;;
944;SDS011;459;48.676;9.034;2023-05-07T01:02:06;3.93;;;3.63;;
944;SDS011;459;48.676;9.034;2023-05-07T01:04:31;5.00;;;3.77;;
944;SDS011;459;48.676;9.034;2023-05-07T01:06:57;11.53;;;4.70;;
944;SDS011;459;48.676;9.034;2023-05-07T01:09:23;3.73;;;3.43;;
944;SDS011;459;48.676;9.034;2023-05-07T01:11:49;3.70;;;3.40;;
944;SDS011;459;48.676;9.034;2023-05-07T01:14:14;4.27;;;3.97;;
944;SDS011;459;48.676;9.034;2023-05-07T01:16:39;7.13;;;3.53;;
944;SDS011;459;48.676;9.034;2023-05-07T01:19:06;4.83;;;4.43;;
944;SDS011;459;48.676;9.034;2023-05-07T01:21:32;4.50;;;4.10;;
944;SDS011;459;48.676;9.034;2023-05-07T01:23:59;3.97;;;3.63;;
944;SDS011;459;48.676;9.034;2023-05-07T01:26:24;7.20;;;3.70;;
944;SDS011;459;48.676;9.034;2023-05-07T01:28:49;3.83;;;3.53;;
944;SDS011;459;48.676;9.034;2023-05-07T01:31:15;3.50;;;3.20;;
944;SDS011;459;48.676;9.034;2023-05-07T01:33:41;3.87;;;3.50;;
944;SDS011;459;48.676;9.034;2023-05-07T01:36:08;3.87;;;3.57;;
944;SDS011;459;48.676;9.034;2023-05-07T01:38:36;4.63;;;3.97;;
944;SDS011;459;48.676;9.034;2023-05-07T01:41:01;4.30;;;3.77;;
944;SDS011;459;48.676;9.034;2023-05-07T01:43:27;3.63;;;3.33;;
944;SDS011;459;48.676;9.034;2023-05-07T01:45:53;3.53;;;3.07;;
944;SDS011;459;48.676;9.034;2023-05-07T01:48:18;4.03;;;3.60;;
944;SDS011;459;48.676;9.034;2023-05-07T01:50:44;4.67;;;3.90;;
944;SDS011;459;48.676;9.034;2023-05-07T01:53:09;5.10;;;4.30;;
944;SDS011;459;48.676;9.034;2023-05-07T01:55:34;4.17;;;3.60;;
944;SDS011;459;48.676;9.034;2023-05-07T01:58:01;5.43;;;4.10;;
944;SDS011;459;48.676;9.034;2023-05-07T02:00:26;5.10;;;4.33;;
944;SDS011;459;48.676;9.034;2023-05-07T02:02:52;4.17;;;3.87;;
944;SDS011;459;48.676;9.034;2023-05-07T02:05:17;3.70;;;3.37;;
944;SDS011;459;48.676;9.034;2023-05-07T02:07:43;3.73;;;3.33;;
944;SDS011;459;48.676;9.034;2023-05-07T02:10:08;4.80;;;4.40;;
944;SDS011;459;48.676;9.034;2023-05-07T02:12:33;4.00;;;3.50;;
944;SDS011;459;48.676;9.034;2023-05-07T02:14:58;4.10;;;3.80;;
944;SDS011;459;48.676;9.034;2023-05-07T02:17:23;4.50;;;4.10;;
944;SDS011;459;48.676;9.034;2023-05-07T02:19:49;3.97;;;3.63;;
944;SDS011;459;48.676;9.034;2023-05-07T02:22:14;4.40;;;4.00;;
944;SDS011;459;48.676;9.034;2023-05-07T02:24:40;7.87;;;3.77;;
944;SDS011;459;48.676;9.034;2023-05-07T02:27:05;7.40;;;4.03;;
944;SDS011;459;48.676;9.034;2023-05-07T02:29:30;4.03;;;3.60;;
944;SDS011;459;48.676;9.034;2023-05-07T02:31:55;3.87;;;3.57;;
944;SDS011;459;48.676;9.034;2023-05-07T02:34:21;4.57;;;4.17;;
944;SDS011;459;48.676;9.034;2023-05-07T02:36:46;4.03;;;3.73;;
944;SDS011;459;48.676;9.034;2023-05-07T02:39:14;4.57;;;4.20;;
944;SDS011;459;48.676;9.034;2023-05-07T02:41:40;4.70;;;4.30;;
944;SDS011;459;48.676;9.034;2023-05-07T02:44:05;5.73;;;4.03;;
944;SDS011;459;48.676;9.034;2023-05-07T02:46:30;4.20;;;3.90;;
944;SDS011;459;48.676;9.034;2023-05-07T02:48:56;3.73;;;3.43;;
944;SDS011;459;48.676;9.034;2023-05-07T02:51:21;3.97;;;3.60;;
944;SDS011;459;48.676;9.034;2023-05-07T02:53:47;4.03;;;3.70;;
944;SDS011;459;48.676;9.034;2023-05-07T02:56:12;4.90;;;4.30;;
944;SDS011;459;48.676;9.034;2023-05-07T02:58:37;4.30;;;3.90;;
944;SDS011;459;48.676;9.034;2023-05-07T03:01:04;4.60;;;4.30;;
944;SDS011;459;48.676;9.034;2023-05-07T03:03:29;4.20;;;3.90;;
944;SDS011;459;48.676;9.034;2023-05-07T03:05:55;4.10;;;3.80;;
944;SDS011;459;48.676;9.034;2023-05-07T03:08:20;5.33;;;4.17;;
944;SDS011;459;48.676;9.034;2023-05-07T03:10:45;4.60;;;4.20;;
944;SDS011;459;48.676;9.034;2023-05-07T03:13:11;6.37;;;5.20;;
944;SDS011;459;48.676;9.034;2023-05-07T03:15:36;5.20;;;4.20;;
944;SDS011;459;48.676;9.034;2023-05-07T03:18:01;6.07;;;3.97;;
944;SDS011;459;48.676;9.034;2023-05-07T03:20:26;4.50;;;4.13;;
944;SDS011;459;48.676;9.034;2023-05-07T03:22:51;5.93;;;4.30;;
944;SDS011;459;48.676;9.034;2023-05-07T03:25:17;4.50;;;4.10;;
944;SDS011;459;48.676;9.034;2023-05-07T03:27:42;4.83;;;3.93;;
944;SDS011;459;48.676;9.034;2023-05-07T03:30:07;4.63;;;3.77;;
944;SDS011;459;48.676;9.034;2023-05-07T03:32:33;5.07;;;4.20;;
944;SDS011;459;48.676;9.034;2023-05-07T03:34:58;4.57;;;4.17;;
944;SDS011;459;48.676;9.034;2023-05-07T03:37:24;5.10;;;4.03;;
944;SDS011;459;48.676;9.034;2023-05-07T03:39:49;4.53;;;4.13;;
944;SDS011;459;48.676;9.034;2023-05-07T03:42:14;4.70;;;4.30;;
944;SDS011;459;48.676;9.034;2023-05-07T03:44:39;4.53;;;4.20;;
944;SDS011;459;48.676;9.034;2023-05-07T03:47:05;4.07;;;3.73;;
944;SDS011;459;48.676;9.034;2023-05-07T03:49:30;5.43;;;3.80;;
944;SDS011;459;48.676;9.034;2023-05-07T03:51:55;6.40;;;3.90;;
944;SDS011;459;48.676;9.034;2023-05-07T03:54:20;4.43;;;4.03;;
944;SDS011;459;48.676;9.034;2023-05-07T03:56:45;8.47;;;4.80;;
944;SDS011;459;48.676;9.034;2023-05-07T03:59:11;5.27;;;3.87;;
944;SDS011;459;48.676;9.034;2023-05-07T04:01:37;4.20;;;3.90;;
944;SDS011;459;48.676;9.034;2023-05-07T04:04:02;3.93;;;3.63;;
944;SDS011;459;48.676;9.034;2023-05-07T04:06:28;4.40;;;3.93;;
944;SDS011;459;48.676;9.034;2023-05-07T04:08:53;4.17;;;3.83;;
944;SDS011;459;48.676;9.034;2023-05-07T04:11:18;4.20;;;3.80;;
944;SDS011;459;48.676;9.034;2023-05-07T04:13:43;4.23;;;3.80;;
944;SDS011;459;48.676;9.034;2023-05-07T04:16:09;4.23;;;3.83;;
944;SDS011;459;48.676;9.034;2023-05-07T04:18:34;4.47;;;4.17;;
944;SDS011;459;48.676;9.034;2023-05-07T04:20:59;6.07;;;5.50;;
944;SDS011;459;48.676;9.034;2023-05-07T04:23:24;5.80;;;5.30;;
944;SDS011;459;48.676;9.034;2023-05-07T04:25:50;4.73;;;4.33;;
944;SDS011;459;48.676;9.034;2023-05-07T04:28:15;3.80;;;3.47;;
944;SDS011;459;48.676;9.034;2023-05-07T04:30:40;6.43;;;3.60;;
944;SDS011;459;48.676;9.034;2023-05-07T04:33:06;3.90;;;3.60;;
944;SDS011;459;48.676;9.034;2023-05-07T04:35:31;4.20;;;3.80;;
944;SDS011;459;48.676;9.034;2023-05-07T04:37:57;3.50;;;3.30;;
944;SDS011;459;48.676;9.034;2023-05-07T04:40:22;4.60;;;4.20;;
944;SDS011;459;48.676;9.034;2023-05-07T04:42:47;4.07;;;3.70;;
944;SDS011;459;48.676;9.034;2023-05-07T04:45:12;3.97;;;3.60;;
944;SDS011;459;48.676;9.034;2023-05-07T04:47:38;3.80;;;3.50;;
944;SDS011;459;48.676;9.034;2023-05-07T04:50:03;4.17;;;3.77;;
944;SDS011;459;48.676;9.034;2023-05-07T04:52:28;8.30;;;4.43;;
944;SDS011;459;48.676;9.034;2023-05-07T04:54:53;4.53;;;3.80;;
944;SDS011;459;48.676;9.034;2023-05-07T04:57:18;3.90;;;3.60;;
944;SDS011;459;48.676;9.034;2023-05-07T04:59:44;4.20;;;3.90;;
944;SDS011;459;48.676;9.034;2023-05-07T05:02:12;4.43;;;4.03;;
944;SDS011;459;48.676;9.034;2023-05-07T05:04:37;3.63;;;3.33;;
944;SDS011;459;48.676;9.034;2023-05-07T05:07:02;3.97;;;3.10;;
944;SDS011;459;48.676;9.034;2023-05-07T05:09:30;7.40;;;4.30;;
944;SDS011;459;48.676;9.034;2023-05-07T05:11:56;3.43;;;3.13;;
944;SDS011;459;48.676;9.034;2023-05-07T05:14:21;3.97;;;3.60;;
944;SDS011;459;48.676;9.034;2023-05-07T05:16:46;4.80;;;4.40;;
944;SDS011;459;48.676;9.034;2023-05-07T05:19:11;5.30;;;4.80;;
944;SDS011;459;48.676;9.034;2023-05-07T05:21:36;6.13;;;4.60;;
944;SDS011;459;48.676;9.034;2023-05-07T05:24:01;4.97;;;3.80;;
944;SDS011;459;48.676;9.034;2023-05-07T05:26:27;4.73;;;4.37;;
944;SDS011;459;48.676;9.034;2023-05-07T05:28:52;4.70;;;4.40;;
944;SDS011;459;48.676;9.034;2023-05-07T05:31:17;5.27;;;4.30;;
944;SDS011;459;48.676;9.034;2023-05-07T05:33:42;4.53;;;4.13;;
944;SDS011;459;48.676;9.034;2023-05-07T05:36:10;6.60;;;5.07;;
944;SDS011;459;48.676;9.034;2023-05-07T05:38:36;6.07;;;5.33;;
944;SDS011;459;48.676;9.034;2023-05-07T05:41:02;5.23;;;4.73;;
944;SDS011;459;48.676;9.034;2023-05-07T05:43:27;5.07;;;4.60;;
944;SDS011;459;48.676;9.034;2023-05-07T05:45:52;5.53;;;5.03;;
944;SDS011;459;48.676;9.034;2023-05-07T05:48:17;5.90;;;5.30;;
944;SDS011;459;48.676;9.034;2023-05-07T05:50:42;5.63;;;5.23;;
944;SDS011;459;48.676;9.034;2023-05-07T05:53:07;5.70;;;5.27;;
944;SDS011;459;48.676;9.034;2023-05-07T05:55:33;5.83;;;5.10;;
944;SDS011;459;48.676;9.034;2023-05-07T05:57:59;6.00;;;5.50;;
944;SDS011;459;48.676;9.034;2023-05-07T06:00:24;6.90;;;6.20;;
944;SDS011;459;48.676;9.034;2023-05-07T06:02:49;6.33;;;5.73;;
944;SDS011;459;48.676;9.034;2023-05-07T06:05:14;6.13;;;5.63;;
944;SDS011;459;48.676;9.034;2023-05-07T06:07:40;5.60;;;5.10;;
944;SDS011;459;48.676;9.034;2023-05-07T06:10:05;5.40;;;4.90;;
944;SDS011;459;48.676;9.034;2023-05-07T06:12:31;5.50;;;5.10;;
944;SDS011;459;48.676;9.034;2023-05-07T06:14:56;4.47;;;4.07;;
944;SDS011;459;48.676;9.034;2023-05-07T06:17:21;4.93;;;3.67;;
944;SDS011;459;48.676;9.034;2023-05-07T06:19:46;4.83;;;4.43;;
944;SDS011;459;48.676;9.034;2023-05-07T06:22:11;4.07;;;3.67;;
944;SDS011;459;48.676;9.034;2023-05-07T06:24:37;5.17;;;4.77;;
944;SDS011;459;48.676;9.034;2023-05-07T06:27:02;4.60;;;4.20;;
944;SDS011;459;48.676;9.034;2023-05-07T06:29:27;4.20;;;3.80;;
944;SDS011;459;48.676;9.034;2023-05-07T06:31:53;3.73;;;3.43;;
944;SDS011;459;48.676;9.034;2023-05-07T06:34:18;4.03;;;3.63;;
944;SDS011;459;48.676;9.034;2023-05-07T06:36:43;4.47;;;4.07;;
944;SDS011;459;48.676;9.034;2023-05-07T06:39:08;5.17;;;4.30;;
944;SDS011;459;48.676;9.034;2023-05-07T06:41:34;4.80;;;4.40;;
944;SDS011;459;48.676;9.034;2023-05-07T06:44:00;5.33;;;4.80;;
944;SDS011;459;48.676;9.034;2023-05-07T06:46:25;5.10;;;4.20;;
944;SDS011;459;48.676;9.034;2023-05-07T06:48:50;5.30;;;4.90;;
944;SDS011;459;48.676;9.034;2023-05-07T06:51:17;5.67;;;5.07;;
944;SDS011;459;48.676;9.034;2023-05-07T06:53:42;5.37;;;4.20;;
944;SDS011;459;48.676;9.034;2023-05-07T06:56:07;5.67;;;4.43;;
944;SDS011;459;48.676;9.034;2023-05-07T06:58:32;5.53;;;5.00;;
944;SDS011;459;48.676;9.034;2023-05-07T07:00:58;4.90;;;4.50;;
944;SDS011;459;48.676;9.034;2023-05-07T07:03:23;4.83;;;4.33;;
944;SDS011;459;48.676;9.034;2023-05-07T07:05:51;4.60;;;4.20;;
944;SDS011;459;48.676;9.034;2023-05-07T07:08:16;5.10;;;4.70;;
944;SDS011;459;48.676;9.034;2023-05-07T07:10:43;5.03;;;4.60;;
944;SDS011;459;48.676;9.034;2023-05-07T07:13:08;4.93;;;4.13;;
944;SDS011;459;48.676;9.034;2023-05-07T07:15:33;4.80;;;4.13;;
944;SDS011;459;48.676;9.034;2023-05-07T07:17:58;5.37;;;4.40;;
944;SDS011;459;48.676;9.034;2023-05-07T07:20:23;4.90;;;4.50;;
944;SDS011;459;48.676;9.034;2023-05-07T07:22:48;5.73;;;5.23;;
944;SDS011;459;48.676;9.034;2023-05-07T07:25:14;4.77;;;4.37;;
944;SDS011;459;48.676;9.034;2023-05-07T07:27:39;4.80;;;4.40;;
944;SDS011;459;48.676;9.034;2023-05-07T07:30:05;4.60;;;3.57;;
944;SDS011;459;48.676;9.034;2023-05-07T07:32:30;4.60;;;4.20;;
944;SDS011;459;48.676;9.034;2023-05-07T07:34:57;5.23;;;4.73;;
944;SDS011;459;48.676;9.034;2023-05-07T07:37:22;5.17;;;4.67;;
944;SDS011;459;48.676;9.034;2023-05-07T07:39:47;4.37;;;3.97;;
944;SDS011;459;48.676;9.034;2023-05-07T07:42:12;4.40;;;4.10;;
944;SDS011;459;48.676;9.034;2023-05-07T07:44:37;4.83;;;3.70;;
944;SDS011;459;48.676;9.034;2023-05-07T07:47:04;5.60;;;4.77;;
944;SDS011;459;48.676;9.034;2023-05-07T07:49:29;4.70;;;4.30;;
944;SDS011;459;48.676;9.034;2023-05-07T07:51:55;4.90;;;4.13;;
944;SDS011;459;48.676;9.034;2023-05-07T07:54:21;4.53;;;4.13;;
944;SDS011;459;48.676;9.034;2023-05-07T07:56:46;3.80;;;3.33;;
944;SDS011;459;48.676;9.034;2023-05-07T07:59:11;3.63;;;3.33;;
944;SDS011;459;48.676;9.034;2023-05-07T08:01:38;5.57;;;5.10;;
944;SDS011;459;48.676;9.034;2023-05-07T08:04:03;3.97;;;3.67;;
944;SDS011;459;48.676;9.034;2023-05-07T08:06:30;3.40;;;2.90;;
944;SDS011;459;48.676;9.034;2023-05-07T08:08:55;3.43;;;3.13;;
944;SDS011;459;48.676;9.034;2023-05-07T08:11:20;7.37;;;3.97;;
944;SDS011;459;48.676;9.034;2023-05-07T08:13:46;3.77;;;3.47;;
944;SDS011;459;48.676;9.034;2023-05-07T08:16:11;3.67;;;3.37;;
944;SDS011;459;48.676;9.034;2023-05-07T08:18:37;3.37;;;3.00;;
944;SDS011;459;48.676;9.034;2023-05-07T08:21:02;3.53;;;3.00;;
944;SDS011;459;48.676;9.034;2023-05-07T08:23:27;3.47;;;3.17;;
944;SDS011;459;48.676;9.034;2023-05-07T08:25:53;3.83;;;3.43;;
944;SDS011;459;48.676;9.034;2023-05-07T08:28:18;3.00;;;2.80;;
944;SDS011;459;48.676;9.034;2023-05-07T08:30:44;3.80;;;3.40;;
944;SDS011;459;48.676;9.034;2023-05-07T08:33:09;4.73;;;3.17;;
944;SDS011;459;48.676;9.034;2023-05-07T08:35:34;3.70;;;2.73;;
944;SDS011;459;48.676;9.034;2023-05-07T08:38:00;3.30;;;3.00;;
944;SDS011;459;48.676;9.034;2023-05-07T08:40:25;3.50;;;3.20;;
944;SDS011;459;48.676;9.034;2023-05-07T08:42:52;3.17;;;2.97;;
944;SDS011;459;48.676;9.034;2023-05-07T08:45:17;3.73;;;2.80;;
944;SDS011;459;48.676;9.034;2023-05-07T08:47:44;2.87;;;2.67;;
944;SDS011;459;48.676;9.034;2023-05-07T08:50:10;3.57;;;3.27;;
944;SDS011;459;48.676;9.034;2023-05-07T08:52:35;3.70;;;3.40;;
944;SDS011;459;48.676;9.034;2023-05-07T08:55:01;3.63;;;3.00;;
944;SDS011;459;48.676;9.034;2023-05-07T08:57:27;2.70;;;2.50;;
944;SDS011;459;48.676;9.034;2023-05-07T08:59:52;4.57;;;2.53;;
944;SDS011;459;48.676;9.034;2023-05-07T09:02:17;2.70;;;2.50;;
944;SDS011;459;48.676;9.034;2023-05-07T09:04:43;4.10;;;3.50;;
944;SDS011;459;48.676;9.034;2023-05-07T09:07:08;3.60;;;3.30;;
944;SDS011;459;48.676;9.034;2023-05-07T09:09:33;2.80;;;2.53;;
944;SDS011;459;48.676;9.034;2023-05-07T09:11:59;3.10;;;2.80;;
944;SDS011;459;48.676;9.034;2023-05-07T09:14:24;2.90;;;2.70;;
944;SDS011;459;48.676;9.034;2023-05-07T09:16:51;2.90;;;2.70;;
944;SDS011;459;48.676;9.034;2023-05-07T09:19:18;4.10;;;3.80;;
944;SDS011;459;48.676;9.034;2023-05-07T09:21:47;3.87;;;3.50;;
944;SDS011;459;48.676;9.034;2023-05-07T09:24:14;3.20;;;3.00;;
944;SDS011;459;48.676;9.034;2023-05-07T09:26:40;3.27;;;3.00;;
944;SDS011;459;48.676;9.034;2023-05-07T09:29:05;3.80;;;3.50;;
944;SDS011;459;48.676;9.034;2023-05-07T09:31:31;4.20;;;3.47;;
944;SDS011;459;48.676;9.034;2023-05-07T09:33:57;3.90;;;3.60;;
944;SDS011;459;48.676;9.034;2023-05-07T09:36:22;3.60;;;3.40;;
944;SDS011;459;48.676;9.034;2023-05-07T09:38:47;5.07;;;3.73;;
944;SDS011;459;48.676;9.034;2023-05-07T09:41:13;3.83;;;3.50;;
944;SDS011;459;48.676;9.034;2023-05-07T09:43:39;3.90;;;3.60;;
944;SDS011;459;48.676;9.034;2023-05-07T09:46:14;3.80;;;3.50;;
944;SDS011;459;48.676;9.034;2023-05-07T09:48:40;5.20;;;3.80;;
944;SDS011;459;48.676;9.034;2023-05-07T09:51:08;3.53;;;3.30;;
944;SDS011;459;48.676;9.034;2023-05-07T09:53:34;3.17;;;2.90;;
944;SDS011;459;48.676;9.034;2023-05-07T09:56:00;4.33;;;3.67;;
944;SDS011;459;48.676;9.034;2023-05-07T09:58:26;3.40;;;3.10;;
944;SDS011;459;48.676;9.034;2023-05-07T10:00:51;4.37;;;3.70;;
944;SDS011;459;48.676;9.034;2023-05-07T10:03:17;3.60;;;3.30;;
944;SDS011;459;48.676;9.034;2023-05-07T10:05:44;4.07;;;3.73;;
944;SDS011;459;48.676;9.034;2023-05-07T10:08:09;3.57;;;3.27;;
944;SDS011;459;48.676;9.034;2023-05-07T10:10:35;3.70;;;3.27;;
944;SDS011;459;48.676;9.034;2023-05-07T10:13:01;4.20;;;3.80;;
944;SDS011;459;48.676;9.034;2023-05-07T10:15:30;3.83;;;3.47;;
944;SDS011;459;48.676;9.034;2023-05-07T10:17:56;4.30;;;3.23;;
944;SDS011;459;48.676;9.034;2023-05-07T10:20:21;4.20;;;3.80;;
944;SDS011;459;48.676;9.034;2023-05-07T10:22:47;5.90;;;3.53;;
944;SDS011;459;48.676;9.034;2023-05-07T10:25:18;3.80;;;3.40;;
944;SDS011;459;48.676;9.034;2023-05-07T10:27:43;3.53;;;3.23;;
944;SDS011;459;48.676;9.034;2023-05-07T10:30:17;3.07;;;2.87;;
944;SDS011;459;48.676;9.034;2023-05-07T10:32:51;4.07;;;3.67;;
944;SDS011;459;48.676;9.034;2023-05-07T10:35:20;3.30;;;3.00;;
944;SDS011;459;48.676;9.034;2023-05-07T10:37:47;4.70;;;3.27;;
944;SDS011;459;48.676;9.034;2023-05-07T10:40:12;3.53;;;2.90;;
944;SDS011;459;48.676;9.034;2023-05-07T10:42:38;3.70;;;3.10;;
944;SDS011;459;48.676;9.034;2023-05-07T10:45:13;3.43;;;3.20;;
944;SDS011;459;48.676;9.034;2023-05-07T10:48:05;2.93;;;2.73;;
944;SDS011;459;48.676;9.034;2023-05-07T10:50:24;2.80;;;2.60;;
944;SDS011;459;48.676;9.034;2023-05-07T10:53:19;3.70;;;2.70;;
944;SDS011;459;48.676;9.034;2023-05-07T10:55:40;3.27;;;2.87;;
944;SDS011;459;48.676;9.034;2023-05-07T10:58:27;3.70;;;3.10;;
944;SDS011;459;48.676;9.034;2023-05-07T11:00:55;4.70;;;3.20;;
944;SDS011;459;48.676;9.034;2023-05-07T11:03:21;3.80;;;2.73;;
944;SDS011;459;48.676;9.034;2023-05-07T11:05:47;2.70;;;2.50;;
944;SDS011;459;48.676;9.034;2023-05-07T11:08:13;3.30;;;2.90;;
944;SDS011;459;48.676;9.034;2023-05-07T11:10:55;7.47;;;3.13;;
944;SDS011;459;48.676;9.034;2023-05-07T11:16:05;3.63;;;3.00;;
944;SDS011;459;48.676;9.034;2023-05-07T11:18:47;2.90;;;2.70;;
944;SDS011;459;48.676;9.034;2023-05-07T11:21:20;2.70;;;2.50;;
944;SDS011;459;48.676;9.034;2023-05-07T11:23:56;6.37;;;3.23;;
944;SDS011;459;48.676;9.034;2023-05-07T11:26:22;2.83;;;2.63;;
944;SDS011;459;48.676;9.034;2023-05-07T11:28:47;4.07;;;2.60;;
944;SDS011;459;48.676;9.034;2023-05-07T11:31:12;5.90;;;3.10;;
944;SDS011;459;48.676;9.034;2023-05-07T11:33:37;3.87;;;3.53;;
944;SDS011;459;48.676;9.034;2023-05-07T11:36:03;3.43;;;3.20;;
944;SDS011;459;48.676;9.034;2023-05-07T11:38:29;3.60;;;3.30;;
944;SDS011;459;48.676;9.034;2023-05-07T11:40:56;4.83;;;3.60;;
944;SDS011;459;48.676;9.034;2023-05-07T11:43:21;3.37;;;3.07;;
944;SDS011;459;48.676;9.034;2023-05-07T11:45:46;3.00;;;2.70;;
944;SDS011;459;48.676;9.034;2023-05-07T11:48:15;3.83;;;2.97;;
944;SDS011;459;48.676;9.034;2023-05-07T11:50:50;3.33;;;3.03;;
944;SDS011;459;48.676;9.034;2023-05-07T11:53:16;4.90;;;3.00;;
944;SDS011;459;48.676;9.034;2023-05-07T11:55:42;3.53;;;3.23;;
944;SDS011;459;48.676;9.034;2023-05-07T11:58:07;3.67;;;3.40;;
944;SDS011;459;48.676;9.034;2023-05-07T12:00:34;3.30;;;3.00;;
944;SDS011;459;48.676;9.034;2023-05-07T12:03:02;3.63;;;3.33;;
944;SDS011;459;48.676;9.034;2023-05-07T12:05:28;4.17;;;3.50;;
944;SDS011;459;48.676;9.034;2023-05-07T12:07:55;4.30;;;2.70;;
944;SDS011;459;48.676;9.034;2023-05-07T12:10:21;4.17;;;1.90;;
944;SDS011;459;48.676;9.034;2023-05-07T12:12:46;1.73;;;1.50;;
944;SDS011;459;48.676;9.034;2023-05-07T12:15:13;1.83;;;1.50;;
944;SDS011;459;48.676;9.034;2023-05-07T12:17:40;2.30;;;1.70;;
944;SDS011;459;48.676;9.034;2023-05-07T12:20:06;1.30;;;1.10;;
944;SDS011;459;48.676;9.034;2023-05-07T12:22:31;2.00;;;1.47;;
944;SDS011;459;48.676;9.034;2023-05-07T12:24:58;1.77;;;1.47;;
944;SDS011;459;48.676;9.034;2023-05-07T12:27:23;2.27;;;1.33;;
944;SDS011;459;48.676;9.034;2023-05-07T12:29:49;1.57;;;1.40;;
944;SDS011;459;48.676;9.034;2023-05-07T12:32:17;2.10;;;1.70;;
944;SDS011;459;48.676;9.034;2023-05-07T12:34:43;2.03;;;1.67;;
944;SDS011;459;48.676;9.034;2023-05-07T12:37:08;3.63;;;2.33;;
944;SDS011;459;48.676;9.034;2023-05-07T12:39:33;4.50;;;3.13;;
944;SDS011;459;48.676;9.034;2023-05-07T12:41:59;8.47;;;3.70;;
944;SDS011;459;48.676;9.034;2023-05-07T12:44:31;11.23;;;4.40;;
944;SDS011;459;48.676;9.034;2023-05-07T12:46:56;9.40;;;5.50;;
944;SDS011;459;48.676;9.034;2023-05-07T12:49:22;9.07;;;5.30;;
944;SDS011;459;48.676;9.034;2023-05-07T12:51:48;14.10;;;6.97;;
944;SDS011;459;48.676;9.034;2023-05-07T12:54:14;9.13;;;5.37;;
944;SDS011;459;48.676;9.034;2023-05-07T12:56:39;7.20;;;4.70;;
944;SDS011;459;48.676;9.034;2023-05-07T12:59:04;5.70;;;3.33;;
944;SDS011;459;48.676;9.034;2023-05-07T13:01:30;4.40;;;3.37;;
944;SDS011;459;48.676;9.034;2023-05-07T13:04:01;3.43;;;2.47;;
944;SDS011;459;48.676;9.034;2023-05-07T13:06:27;6.83;;;4.47;;
944;SDS011;459;48.676;9.034;2023-05-07T13:08:52;8.23;;;4.60;;
944;SDS011;459;48.676;9.034;2023-05-07T13:11:18;8.70;;;4.87;;
944;SDS011;459;48.676;9.034;2023-05-07T13:13:43;7.10;;;5.00;;
944;SDS011;459;48.676;9.034;2023-05-07T13:16:09;12.67;;;6.00;;
944;SDS011;459;48.676;9.034;2023-05-07T13:18:34;6.57;;;5.13;;
944;SDS011;459;48.676;9.034;2023-05-07T13:21:00;8.53;;;4.93;;
944;SDS011;459;48.676;9.034;2023-05-07T13:23:26;5.70;;;4.83;;
944;SDS011;459;48.676;9.034;2023-05-07T13:25:51;7.10;;;4.53;;
944;SDS011;459;48.676;9.034;2023-05-07T13:28:18;6.03;;;5.10;;
944;SDS011;459;48.676;9.034;2023-05-07T13:30:44;7.30;;;4.90;;
944;SDS011;459;48.676;9.034;2023-05-07T13:33:10;11.20;;;4.70;;
944;SDS011;459;48.676;9.034;2023-05-07T13:35:35;6.33;;;4.00;;
944;SDS011;459;48.676;9.034;2023-05-07T13:38:00;4.67;;;4.23;;
944;SDS011;459;48.676;9.034;2023-05-07T13:40:25;6.60;;;4.47;;
944;SDS011;459;48.676;9.034;2023-05-07T13:42:51;7.57;;;5.80;;
944;SDS011;459;48.676;9.034;2023-05-07T13:45:17;7.40;;;6.43;;
944;SDS011;459;48.676;9.034;2023-05-07T13:47:43;5.93;;;5.40;;
944;SDS011;459;48.676;9.034;2023-05-07T13:50:08;6.00;;;5.23;;
944;SDS011;459;48.676;9.034;2023-05-07T13:52:34;6.23;;;5.57;;
944;SDS011;459;48.676;9.034;2023-05-07T13:54:59;7.30;;;5.60;;
944;SDS011;459;48.676;9.034;2023-05-07T13:57:24;5.40;;;4.90;;
944;SDS011;459;48.676;9.034;2023-05-07T13:59:49;7.07;;;5.63;;
944;SDS011;459;48.676;9.034;2023-05-07T14:02:15;7.33;;;5.10;;
944;SDS011;459;48.676;9.034;2023-05-07T14:04:40;4.93;;;3.97;;
944;SDS011;459;48.676;9.034;2023-05-07T14:07:06;6.40;;;4.67;;
944;SDS011;459;48.676;9.034;2023-05-07T14:09:31;4.20;;;3.37;;
944;SDS011;459;48.676;9.034;2023-05-07T14:11:56;11.10;;;4.37;;
944;SDS011;459;48.676;9.034;2023-05-07T14:14:21;4.63;;;3.73;;
944;SDS011;459;48.676;9.034;2023-05-07T14:16:49;4.80;;;4.40;;
944;SDS011;459;48.676;9.034;2023-05-07T14:19:15;5.10;;;4.57;;
944;SDS011;459;48.676;9.034;2023-05-07T14:21:40;4.50;;;3.77;;
944;SDS011;459;48.676;9.034;2023-05-07T14:24:06;4.40;;;3.87;;
944;SDS011;459;48.676;9.034;2023-05-07T14:26:32;6.27;;;4.67;;
944;SDS011;459;48.676;9.034;2023-05-07T14:28:57;4.53;;;4.13;;
944;SDS011;459;48.676;9.034;2023-05-07T14:31:23;4.10;;;3.70;;
944;SDS011;459;48.676;9.034;2023-05-07T14:33:49;4.60;;;4.20;;
944;SDS011;459;48.676;9.034;2023-05-07T14:36:15;6.30;;;5.70;;
944;SDS011;459;48.676;9.034;2023-05-07T14:38:40;4.07;;;3.77;;
944;SDS011;459;48.676;9.034;2023-05-07T14:41:05;5.50;;;5.00;;
944;SDS011;459;48.676;9.034;2023-05-07T14:43:31;9.13;;;8.40;;
944;SDS011;459;48.676;9.034;2023-05-07T14:45:56;10.63;;;9.83;;
944;SDS011;459;48.676;9.034;2023-05-07T14:48:21;8.17;;;7.57;;
944;SDS011;459;48.676;9.034;2023-05-07T14:50:47;5.10;;;4.63;;
944;SDS011;459;48.676;9.034;2023-05-07T14:53:12;5.83;;;3.97;;
944;SDS011;459;48.676;9.034;2023-05-07T14:55:38;3.83;;;3.53;;
944;SDS011;459;48.676;9.034;2023-05-07T14:58:03;7.77;;;4.30;;
944;SDS011;459;48.676;9.034;2023-05-07T15:00:28;4.00;;;3.37;;
944;SDS011;459;48.676;9.034;2023-05-07T15:02:53;7.00;;;4.27;;
944;SDS011;459;48.676;9.034;2023-05-07T15:05:20;4.63;;;3.90;;
944;SDS011;459;48.676;9.034;2023-05-07T15:07:45;4.50;;;4.10;;
944;SDS011;459;48.676;9.034;2023-05-07T15:10:10;4.17;;;3.87;;
944;SDS011;459;48.676;9.034;2023-05-07T15:12:35;4.40;;;4.00;;
944;SDS011;459;48.676;9.034;2023-05-07T15:15:01;3.90;;;3.60;;
944;SDS011;459;48.676;9.034;2023-05-07T15:17:26;4.20;;;3.90;;
944;SDS011;459;48.676;9.034;2023-05-07T15:19:51;4.40;;;4.00;;
944;SDS011;459;48.676;9.034;2023-05-07T15:22:16;3.63;;;3.33;;
944;SDS011;459;48.676;9.034;2023-05-07T15:24:42;3.77;;;3.47;;
944;SDS011;459;48.676;9.034;2023-05-07T15:27:07;4.35;;;3.63;;
944;SDS011;459;48.676;9.034;2023-05-07T15:29:32;3.90;;;3.60;;
944;SDS011;459;48.676;9.034;2023-05-07T15:31:57;4.27;;;3.77;;
944;SDS011;459;48.676;9.034;2023-05-07T15:34:22;4.63;;;4.20;;
944;SDS011;459;48.676;9.034;2023-05-07T15:36:49;4.63;;;3.70;;
944;SDS011;459;48.676;9.034;2023-05-07T15:39:14;4.47;;;4.07;;